createdAt,value
2022-09-30T00:00:29.991Z,77.21
2022-09-30T00:03:06.672Z,77.19
2022-09-30T00:05:42.149Z,76.95
2022-09-30T00:08:15.798Z,77.36
2022-09-30T00:10:49.502Z,77.35
2022-09-30T00:13:28.771Z,77.38
2022-09-30T00:16:03.404Z,77.71
2022-09-30T00:18:55.637Z,77.16
2022-09-30T00:21:30.716Z,77.27
2022-09-30T00:24:04.899Z,77.27
2022-09-30T00:26:40.026Z,77.58
2022-09-30T00:29:15.606Z,77.18
2022-09-30T00:31:49.647Z,77.39
2022-09-30T00:34:28.608Z,77.63
2022-09-30T00:37:04.489Z,77.51
2022-09-30T00:39:39.672Z,77.59
2022-09-30T00:42:16.381Z,77.70
2022-09-30T00:45:06.132Z,77.32
2022-09-30T00:47:53.486Z,77.40
2022-09-30T00:50:36.597Z,77.27
2022-09-30T00:53:15.343Z,77.47
2022-09-30T00:55:56.009Z,77.38
2022-09-30T00:58:35.135Z,77.36
2022-09-30T01:01:11.450Z,77.30
2022-09-30T01:03:54.007Z,77.34
2022-09-30T01:06:32.732Z,77.38
2022-09-30T01:09:06.359Z,76.73
2022-09-30T01:11:42.099Z,76.88
2022-09-30T01:14:20.096Z,77.23
2022-09-30T01:17:06.750Z,76.85
2022-09-30T01:20:20.045Z,76.86
2022-09-30T01:23:05.576Z,76.97
2022-09-30T01:26:00.150Z,76.70
2022-09-30T01:29:01.416Z,76.88
2022-09-30T01:31:50.057Z,77.10
2022-09-30T01:34:38.440Z,77.39
2022-09-30T01:37:23.406Z,77.28
2022-09-30T01:40:25.683Z,77.33
2022-09-30T01:43:08.717Z,76.88
2022-09-30T01:45:45.731Z,77.15
2022-09-30T01:48:28.708Z,77.18
2022-09-30T01:51:09.426Z,77.22
2022-09-30T01:53:51.953Z,77.21
2022-09-30T01:56:38.739Z,76.90
2022-09-30T01:59:18.205Z,77.36
2022-09-30T02:01:56.596Z,77.12
2022-09-30T02:04:35.019Z,76.64
2022-09-30T02:07:12.836Z,76.44
2022-09-30T02:09:53.351Z,76.35
2022-09-30T02:12:30.790Z,76.45
2022-09-30T02:15:07.552Z,76.46
2022-09-30T02:17:49.086Z,76.37
2022-09-30T02:20:27.263Z,76.23
2022-09-30T02:23:05.199Z,76.01
2022-09-30T02:25:45.254Z,75.98
2022-09-30T02:28:27.128Z,76.05
2022-09-30T02:31:02.191Z,76.13
2022-09-30T02:33:39.919Z,75.88
2022-09-30T02:36:23.216Z,75.74
2022-09-30T02:39:06.013Z,75.64
2022-09-30T02:41:44.105Z,75.53
2022-09-30T02:44:20.757Z,76.03
2022-09-30T02:46:59.346Z,75.93
2022-09-30T02:49:39.325Z,76.00
2022-09-30T02:52:23.052Z,76.21
2022-09-30T02:55:15.317Z,76.10
2022-09-30T02:57:59.249Z,76.05
2022-09-30T03:00:33.767Z,76.28
2022-09-30T03:03:11.889Z,76.42
2022-09-30T03:05:45.629Z,76.49
2022-09-30T03:08:20.041Z,76.14
2022-09-30T03:10:53.911Z,76.53
2022-09-30T03:13:47.941Z,75.95
2022-09-30T03:16:30.638Z,76.34
2022-09-30T03:19:18.217Z,76.40
2022-09-30T03:22:05.657Z,76.53
2022-09-30T03:24:55.839Z,76.47
2022-09-30T03:27:37.442Z,76.54
2022-09-30T03:30:16.167Z,76.41
2022-09-30T03:32:58.923Z,76.13
2022-09-30T03:35:39.222Z,76.33
2022-09-30T03:38:16.899Z,76.10
2022-09-30T03:41:04.115Z,76.22
2022-09-30T03:43:42.771Z,76.53
2022-09-30T03:46:23.502Z,76.25
2022-09-30T03:49:02.740Z,76.38
2022-09-30T03:51:37.686Z,76.52
2022-09-30T03:54:12.605Z,76.58
2022-09-30T03:56:48.144Z,76.10
2022-09-30T03:59:25.701Z,76.20
2022-09-30T04:01:58.911Z,76.39
2022-09-30T04:04:31.824Z,76.30
2022-09-30T04:07:05.767Z,76.38
2022-09-30T04:09:39.563Z,76.13
2022-09-30T04:12:13.835Z,75.94
2022-09-30T04:14:46.674Z,76.13
2022-09-30T04:17:22.841Z,76.24
2022-09-30T04:19:55.642Z,75.96
2022-09-30T04:22:31.332Z,76.20
2022-09-30T04:25:04.366Z,76.15
2022-09-30T04:27:40.117Z,76.30
2022-09-30T04:30:14.056Z,76.33
2022-09-30T04:32:50.748Z,76.09
2022-09-30T04:35:25.121Z,75.98
2022-09-30T04:37:57.953Z,76.21
2022-09-30T04:40:39.449Z,76.24
2022-09-30T04:43:14.536Z,76.29
2022-09-30T04:45:48.003Z,76.64
2022-09-30T04:48:22.244Z,76.30
2022-09-30T04:50:55.345Z,76.33
2022-09-30T04:53:30.377Z,76.31
2022-09-30T04:56:03.387Z,76.21
2022-09-30T04:58:38.387Z,75.91
2022-09-30T05:01:13.378Z,76.10
2022-09-30T05:03:47.282Z,75.93
2022-09-30T05:06:23.498Z,76.40
2022-09-30T05:08:56.353Z,76.29
2022-09-30T05:11:29.564Z,76.11
2022-09-30T05:14:08.859Z,76.11
2022-09-30T05:16:44.374Z,76.28
2022-09-30T05:19:17.368Z,76.14
2022-09-30T05:21:50.281Z,76.49
2022-09-30T05:24:23.288Z,76.39
2022-09-30T05:26:56.132Z,76.40
2022-09-30T05:29:30.364Z,76.24
2022-09-30T05:32:03.240Z,76.20
2022-09-30T05:34:37.087Z,76.37
2022-09-30T05:37:10.646Z,76.31
2022-09-30T05:39:43.489Z,76.12
2022-09-30T05:42:16.402Z,75.95
2022-09-30T05:44:50.645Z,76.25
2022-09-30T05:47:28.208Z,76.07
2022-09-30T05:50:02.844Z,76.69
2022-09-30T05:52:36.837Z,76.62
2022-09-30T05:55:14.478Z,76.67
2022-09-30T05:57:51.677Z,76.95
2022-09-30T06:00:28.702Z,77.26
2022-09-30T06:03:01.679Z,77.22
2022-09-30T06:05:36.525Z,77.50
2022-09-30T06:08:10.317Z,77.32
2022-09-30T06:10:46.905Z,77.25
2022-09-30T06:13:20.721Z,77.15
2022-09-30T06:15:59.845Z,76.78
2022-09-30T06:18:33.240Z,76.86
2022-09-30T06:21:06.633Z,77.27
2022-09-30T06:23:39.810Z,76.67
2022-09-30T06:26:14.570Z,76.69
2022-09-30T06:28:47.694Z,76.96
2022-09-30T06:31:22.076Z,77.21
2022-09-30T06:33:55.059Z,77.25
2022-09-30T06:36:29.624Z,77.05
2022-09-30T06:39:02.842Z,77.30
2022-09-30T06:41:43.599Z,77.21
2022-09-30T06:44:16.488Z,77.29
2022-09-30T06:46:53.951Z,77.21
2022-09-30T06:49:36.424Z,77.46
2022-09-30T06:52:13.532Z,77.33
2022-09-30T06:54:47.183Z,76.87
2022-09-30T06:57:24.816Z,77.12
2022-09-30T06:59:57.668Z,76.78
2022-09-30T07:02:34.540Z,76.47
2022-09-30T07:05:08.058Z,76.42
2022-09-30T07:07:40.848Z,76.58
2022-09-30T07:10:13.746Z,76.51
2022-09-30T07:12:50.934Z,75.66
2022-09-30T07:15:23.951Z,76.29
2022-09-30T07:17:58.482Z,75.82
2022-09-30T07:20:31.329Z,75.58
2022-09-30T07:23:04.131Z,75.92
2022-09-30T07:25:37.004Z,75.47
2022-09-30T07:28:10.042Z,75.40
2022-09-30T07:30:44.226Z,75.52
2022-09-30T07:33:18.505Z,75.13
2022-09-30T07:35:56.576Z,75.29
2022-09-30T07:38:33.738Z,75.45
2022-09-30T07:41:11.582Z,75.62
2022-09-30T07:43:46.224Z,75.77
2022-09-30T07:46:22.402Z,76.04
2022-09-30T07:49:04.534Z,76.23
2022-09-30T07:51:39.643Z,76.18
2022-09-30T07:54:16.034Z,76.13
2022-09-30T07:57:09.183Z,76.44
2022-09-30T07:59:44.199Z,76.44
2022-09-30T08:02:21.088Z,76.45
2022-09-30T08:04:55.972Z,76.15
2022-09-30T08:07:28.905Z,76.41
2022-09-30T08:10:02.052Z,76.06
2022-09-30T08:12:35.953Z,75.99
2022-09-30T08:15:09.988Z,75.72
2022-09-30T08:17:47.286Z,75.48
2022-09-30T08:20:22.567Z,75.31
2022-09-30T08:22:58.210Z,75.09
2022-09-30T08:25:30.985Z,75.34
2022-09-30T08:28:04.022Z,74.15
2022-09-30T08:30:37.562Z,74.44
2022-09-30T08:33:10.393Z,74.05
2022-09-30T08:35:45.112Z,73.66
2022-09-30T08:38:17.903Z,74.25
2022-09-30T08:40:57.929Z,73.25
2022-09-30T08:43:40.774Z,73.28
2022-09-30T08:46:22.559Z,73.36
2022-09-30T08:49:03.522Z,74.45
2022-09-30T08:51:40.392Z,72.92
2022-09-30T08:54:16.822Z,73.06
2022-09-30T08:56:50.243Z,73.36
2022-09-30T08:59:31.178Z,72.96
2022-09-30T09:02:20.537Z,73.85
2022-09-30T09:04:53.702Z,73.32
2022-09-30T09:07:42.021Z,72.80
2022-09-30T09:10:28.846Z,73.09
2022-09-30T09:13:10.942Z,72.49
2022-09-30T09:15:56.415Z,72.65
2022-09-30T09:18:40.524Z,72.80
2022-09-30T09:21:23.833Z,72.08
2022-09-30T09:24:02.992Z,71.82
2022-09-30T09:26:38.033Z,71.49
2022-09-30T09:29:27.149Z,70.57
2022-09-30T09:32:02.109Z,70.36
2022-09-30T09:34:38.251Z,69.64
2022-09-30T09:37:20.438Z,68.96
2022-09-30T09:40:08.800Z,69.46
2022-09-30T09:43:02.136Z,69.81
2022-09-30T09:45:41.102Z,70.17
2022-09-30T09:48:17.330Z,70.24
2022-09-30T09:50:58.933Z,70.00
2022-09-30T09:53:43.386Z,70.29
2022-09-30T09:56:19.745Z,70.29
2022-09-30T09:59:06.973Z,70.32
2022-09-30T10:01:43.079Z,69.85
2022-09-30T10:04:23.784Z,69.26
2022-09-30T10:07:00.430Z,69.45
2022-09-30T10:09:35.679Z,68.69
2022-09-30T10:12:32.525Z,68.29
2022-09-30T10:15:22.948Z,68.73
2022-09-30T10:17:58.101Z,69.32
2022-09-30T10:20:33.503Z,69.74
2022-09-30T10:23:18.556Z,68.33
2022-09-30T10:26:04.110Z,70.21
2022-09-30T10:28:47.219Z,68.78
2022-09-30T10:31:25.542Z,68.65
2022-09-30T10:34:04.459Z,69.59
2022-09-30T10:36:40.559Z,70.05
2022-09-30T10:39:23.267Z,69.40
2022-09-30T10:42:03.586Z,69.94
2022-09-30T10:44:46.277Z,68.21
2022-09-30T10:47:21.593Z,68.64
2022-09-30T10:50:01.089Z,68.35
2022-09-30T10:52:37.028Z,68.30
2022-09-30T10:55:29.101Z,68.41
2022-09-30T10:58:22.328Z,68.38
2022-09-30T11:01:03.679Z,67.70
2022-09-30T11:03:47.199Z,67.61
2022-09-30T11:06:20.765Z,68.23
2022-09-30T11:09:01.128Z,68.05
2022-09-30T11:11:39.973Z,67.42
2022-09-30T11:14:25.226Z,67.83
2022-09-30T11:17:11.392Z,67.64
2022-09-30T11:19:50.715Z,66.63
2022-09-30T11:22:32.581Z,67.68
2022-09-30T11:25:11.077Z,67.50
2022-09-30T11:28:07.227Z,66.70
2022-09-30T11:30:49.661Z,68.12
2022-09-30T11:33:48.855Z,68.32
2022-09-30T11:36:33.074Z,68.45
2022-09-30T11:39:26.014Z,68.01
2022-09-30T11:42:06.350Z,68.53
2022-09-30T11:44:43.417Z,68.13
2022-09-30T11:47:50.379Z,66.54
2022-09-30T11:51:06.933Z,67.98
2022-09-30T11:53:49.441Z,67.62
2022-09-30T11:56:34.818Z,68.27
2022-09-30T11:59:23.189Z,69.57
2022-09-30T12:02:01.241Z,67.61
2022-09-30T12:04:40.767Z,67.99
2022-09-30T12:07:19.921Z,67.95
2022-09-30T12:09:59.230Z,67.54
2022-09-30T12:12:33.341Z,66.92
2022-09-30T12:15:10.486Z,66.79
2022-09-30T12:17:48.021Z,67.55
2022-09-30T12:20:26.229Z,67.43
2022-09-30T12:23:11.273Z,67.25
2022-09-30T12:25:50.589Z,67.30
2022-09-30T12:28:49.717Z,68.04
2022-09-30T12:31:50.294Z,68.19
2022-09-30T12:34:38.938Z,68.04
2022-09-30T12:37:26.245Z,67.89
2022-09-30T12:40:27.604Z,67.51
2022-09-30T12:43:19.074Z,67.27
2022-09-30T12:46:15.528Z,68.47
2022-09-30T12:48:53.585Z,66.33
2022-09-30T12:51:31.338Z,65.94
2022-09-30T12:54:15.617Z,66.35
2022-09-30T12:56:59.348Z,64.57
2022-09-30T12:59:36.081Z,66.11
2022-09-30T13:02:09.956Z,66.20
2022-09-30T13:04:44.956Z,66.32
2022-09-30T13:07:21.913Z,66.06
2022-09-30T13:10:28.134Z,66.46
2022-09-30T13:13:24.811Z,67.00
2022-09-30T13:16:03.250Z,67.44
2022-09-30T13:19:02.200Z,64.12
2022-09-30T13:21:35.066Z,65.77
2022-09-30T13:24:09.103Z,65.14
2022-09-30T13:27:07.387Z,65.65
2022-09-30T13:29:49.734Z,65.11
2022-09-30T13:32:34.614Z,65.20
2022-09-30T13:35:33.123Z,65.33
2022-09-30T13:38:18.523Z,65.70
2022-09-30T13:41:03.693Z,66.12
2022-09-30T13:43:42.148Z,65.51
2022-09-30T13:46:26.860Z,65.57
2022-09-30T13:49:06.012Z,66.56
2022-09-30T13:51:41.732Z,66.25
2022-09-30T13:54:25.471Z,65.61
2022-09-30T13:56:59.175Z,65.64
2022-09-30T13:59:56.877Z,64.88
2022-09-30T14:03:03.698Z,66.61
2022-09-30T14:05:57.591Z,66.32
2022-09-30T14:08:50.431Z,65.35
2022-09-30T14:12:01.145Z,65.91
2022-09-30T14:15:04.327Z,66.03
2022-09-30T14:18:12.355Z,65.02
2022-09-30T14:21:01.949Z,65.31
2022-09-30T14:23:34.944Z,64.42
2022-09-30T14:26:24.460Z,64.29
2022-09-30T14:29:01.530Z,64.20
2022-09-30T14:31:35.349Z,64.95
2022-09-30T14:34:13.395Z,64.14
2022-09-30T14:36:46.400Z,65.00
2022-09-30T14:39:22.427Z,65.18
2022-09-30T14:41:59.388Z,65.49
2022-09-30T14:44:36.529Z,65.61
2022-09-30T14:47:09.373Z,66.16
2022-09-30T14:49:44.087Z,65.83
2022-09-30T14:52:36.659Z,66.29
2022-09-30T14:55:27.572Z,65.60
2022-09-30T14:58:22.772Z,66.61
2022-09-30T15:01:06.177Z,67.06
2022-09-30T15:03:41.521Z,65.89
2022-09-30T15:06:20.861Z,65.46
2022-09-30T15:09:02.567Z,65.60
2022-09-30T15:11:39.726Z,69.05
2022-09-30T15:14:18.801Z,65.39
2022-09-30T15:16:53.359Z,66.00
2022-09-30T15:19:28.039Z,65.97
2022-09-30T15:22:05.980Z,65.63
2022-09-30T15:24:40.702Z,65.77
2022-09-30T15:27:21.001Z,65.37
2022-09-30T15:29:57.198Z,64.59
2022-09-30T15:32:33.799Z,64.65
2022-09-30T15:35:07.879Z,64.92
2022-09-30T15:37:43.571Z,65.25
2022-09-30T15:40:36.564Z,65.02
2022-09-30T15:43:15.752Z,64.56
2022-09-30T15:45:51.296Z,64.62
2022-09-30T15:48:45.326Z,64.87
2022-09-30T15:51:31.004Z,65.27
2022-09-30T15:54:32.360Z,65.99
2022-09-30T15:57:40.229Z,66.54
2022-09-30T16:00:35.789Z,66.26
2022-09-30T16:03:27.068Z,66.51
2022-09-30T16:06:08.718Z,67.07
2022-09-30T16:08:45.323Z,66.38
2022-09-30T16:11:23.566Z,66.60
2022-09-30T16:13:58.049Z,67.19
2022-09-30T16:16:33.651Z,67.08
2022-09-30T16:19:07.596Z,67.59
2022-09-30T16:21:45.438Z,67.23
2022-09-30T16:24:49.478Z,67.26
2022-09-30T16:27:34.088Z,67.63
2022-09-30T16:30:08.346Z,68.35
2022-09-30T16:32:43.218Z,68.53
2022-09-30T16:35:21.366Z,68.49
2022-09-30T16:38:00.382Z,69.12
2022-09-30T16:40:35.844Z,69.63
2022-09-30T16:43:11.754Z,69.38
2022-09-30T16:45:44.938Z,69.52
2022-09-30T16:48:21.289Z,69.75
2022-09-30T16:51:01.830Z,69.46
2022-09-30T16:53:35.166Z,70.16
2022-09-30T16:56:15.469Z,69.76
2022-09-30T16:58:51.330Z,69.66
2022-09-30T17:01:26.489Z,70.24
2022-09-30T17:03:59.334Z,69.92
2022-09-30T17:06:33.595Z,70.38
2022-09-30T17:09:06.994Z,70.46
2022-09-30T17:11:40.246Z,70.34
2022-09-30T17:14:17.210Z,70.30
2022-09-30T17:16:50.355Z,70.32
2022-09-30T17:19:23.818Z,71.02
2022-09-30T17:21:56.767Z,71.28
2022-09-30T17:24:32.546Z,71.74
2022-09-30T17:27:07.832Z,71.82
2022-09-30T17:29:44.010Z,71.80
2022-09-30T17:32:16.817Z,72.00
2022-09-30T17:34:50.856Z,71.83
2022-09-30T17:37:23.917Z,71.93
2022-09-30T17:39:56.749Z,71.83
2022-09-30T17:42:47.595Z,72.22
2022-09-30T17:45:25.985Z,72.07
2022-09-30T17:47:58.795Z,72.33
2022-09-30T17:50:33.636Z,72.21
2022-09-30T17:53:07.663Z,72.20
2022-09-30T17:55:41.114Z,71.97
2022-09-30T17:58:14.754Z,71.53
2022-09-30T18:00:49.630Z,71.46
2022-09-30T18:03:22.720Z,71.78
2022-09-30T18:05:58.835Z,71.83
2022-09-30T18:08:31.955Z,72.02
2022-09-30T18:11:05.676Z,71.89
2022-09-30T18:13:40.242Z,72.34
2022-09-30T18:16:15.104Z,72.10
2022-09-30T18:18:48.686Z,72.18
2022-09-30T18:21:21.597Z,72.40
2022-09-30T18:23:57.407Z,72.75
2022-09-30T18:26:36.054Z,72.80
2022-09-30T18:29:10.960Z,72.66
2022-09-30T18:31:49.334Z,72.62
2022-09-30T18:34:23.370Z,72.78
2022-09-30T18:36:56.140Z,72.72
2022-09-30T18:39:29.279Z,72.75
2022-09-30T18:42:07.722Z,72.83
2022-09-30T18:44:41.883Z,72.89
2022-09-30T18:47:17.550Z,73.07
2022-09-30T18:49:53.021Z,73.66
2022-09-30T18:52:26.801Z,73.71
2022-09-30T18:54:59.810Z,73.92
2022-09-30T18:57:34.170Z,73.52
2022-09-30T19:00:10.527Z,73.64
2022-09-30T19:02:45.486Z,73.51
2022-09-30T19:05:18.589Z,74.01
2022-09-30T19:07:53.333Z,74.02
2022-09-30T19:10:26.386Z,74.31
2022-09-30T19:13:00.037Z,74.00
2022-09-30T19:15:32.956Z,74.19
2022-09-30T19:18:07.377Z,74.14
2022-09-30T19:20:41.130Z,74.07
2022-09-30T19:23:14.346Z,74.31
2022-09-30T19:25:47.453Z,74.09
2022-09-30T19:28:22.456Z,74.08
2022-09-30T19:30:56.198Z,74.10
2022-09-30T19:33:30.743Z,74.24
2022-09-30T19:36:14.374Z,74.15
2022-09-30T19:38:48.622Z,74.12
2022-09-30T19:41:24.191Z,73.88
2022-09-30T19:43:57.566Z,73.99
2022-09-30T19:46:38.946Z,74.15
2022-09-30T19:49:17.854Z,74.20
2022-09-30T19:51:52.576Z,74.29
2022-09-30T19:54:39.945Z,74.30
2022-09-30T19:57:14.040Z,74.00
2022-09-30T19:59:47.022Z,73.91
2022-09-30T20:02:20.498Z,73.94
2022-09-30T20:05:00.688Z,73.75
2022-09-30T20:07:35.116Z,73.90
2022-09-30T20:10:10.637Z,73.42
2022-09-30T20:12:43.889Z,73.09
2022-09-30T20:15:45.990Z,72.70
2022-09-30T20:18:21.997Z,72.14
2022-09-30T20:20:56.967Z,71.65
2022-09-30T20:23:32.047Z,71.40
2022-09-30T20:26:06.148Z,71.32
2022-09-30T20:28:39.507Z,71.18
2022-09-30T20:31:15.474Z,71.38
2022-09-30T20:33:49.122Z,71.57
2022-09-30T20:36:23.852Z,71.55
2022-09-30T20:39:00.278Z,71.90
2022-09-30T20:41:36.900Z,71.80
2022-09-30T20:44:14.160Z,72.06
2022-09-30T20:46:47.026Z,72.31
2022-09-30T20:49:21.813Z,72.55
2022-09-30T20:51:56.281Z,72.38
2022-09-30T20:54:29.100Z,72.66
2022-09-30T20:57:07.131Z,72.81
2022-09-30T20:59:40.532Z,73.04
2022-09-30T21:02:14.311Z,73.14
2022-09-30T21:04:51.944Z,73.09
2022-09-30T21:07:28.334Z,73.40
2022-09-30T21:10:02.665Z,73.60
2022-09-30T21:12:36.979Z,73.28
2022-09-30T21:15:12.079Z,73.30
2022-09-30T21:17:49.918Z,73.04
2022-09-30T21:20:22.898Z,73.26
2022-09-30T21:22:59.467Z,73.39
2022-09-30T21:25:38.714Z,73.86
2022-09-30T21:28:12.741Z,73.76
2022-09-30T21:30:45.596Z,73.69
2022-09-30T21:33:19.369Z,73.78
2022-09-30T21:36:00.031Z,74.48
2022-09-30T21:38:36.839Z,74.83
2022-09-30T21:41:09.684Z,74.31
2022-09-30T21:43:43.856Z,74.48
2022-09-30T21:46:18.512Z,74.28
2022-09-30T21:48:53.747Z,74.13
2022-09-30T21:51:28.307Z,74.41
2022-09-30T21:54:03.611Z,73.87
2022-09-30T21:56:37.523Z,73.91
2022-09-30T21:59:12.217Z,73.75
2022-09-30T22:01:45.352Z,74.21
2022-09-30T22:04:23.084Z,73.78
2022-09-30T22:06:56.934Z,74.03
2022-09-30T22:09:34.851Z,74.13
2022-09-30T22:12:10.251Z,73.86
2022-09-30T22:14:46.812Z,74.22
2022-09-30T22:17:19.595Z,73.54
2022-09-30T22:19:52.476Z,73.86
2022-09-30T22:22:26.390Z,73.71
2022-09-30T22:25:01.571Z,73.51
2022-09-30T22:27:34.974Z,73.76
2022-09-30T22:30:10.630Z,73.92
2022-09-30T22:32:43.516Z,73.38
2022-09-30T22:35:36.227Z,73.59
2022-09-30T22:38:18.674Z,74.62
2022-09-30T22:40:55.662Z,74.90
2022-09-30T22:43:28.771Z,74.79
2022-09-30T22:46:03.192Z,75.50
2022-09-30T22:48:37.030Z,75.85
2022-09-30T22:51:15.851Z,75.64
2022-09-30T22:53:49.498Z,75.36
2022-09-30T22:56:24.162Z,75.35
2022-09-30T22:59:01.805Z,74.90
2022-09-30T23:01:37.365Z,75.29
2022-09-30T23:04:11.417Z,75.29
2022-09-30T23:06:49.445Z,75.11
2022-09-30T23:09:24.354Z,75.31
2022-09-30T23:11:59.475Z,74.79
2022-09-30T23:14:32.548Z,74.36
2022-09-30T23:17:07.291Z,75.08
2022-09-30T23:19:55.850Z,75.17
2022-09-30T23:22:30.984Z,75.27
2022-09-30T23:25:03.887Z,75.48
2022-09-30T23:27:38.543Z,75.98
2022-09-30T23:30:11.905Z,75.91
2022-09-30T23:32:44.986Z,76.79
2022-09-30T23:35:18.775Z,77.25
2022-09-30T23:37:53.614Z,76.93
2022-09-30T23:40:26.757Z,76.99
2022-09-30T23:43:03.973Z,77.53
2022-09-30T23:45:37.865Z,77.69
2022-09-30T23:48:11.131Z,78.51
2022-09-30T23:50:50.207Z,78.00
2022-09-30T23:53:24.366Z,78.30
2022-09-30T23:55:58.800Z,78.49
2022-09-30T23:58:35.777Z,78.35
